sensor_id;sensor_type;location;lat;lon;timestamp;temperature;humidity
14079;DHT22;7115;50.150;8.568;2024-02-15T00:02:24;11.50;99.90
14079;DHT22;7115;50.150;8.568;2024-02-15T00:04:51;11.50;99.90
14079;DHT22;7115;50.150;8.568;2024-02-15T00:07:18;11.50;99.90
14079;DHT22;7115;50.150;8.568;2024-02-15T00:09:49;11.50;99.90
14079;DHT22;7115;50.150;8.568;2024-02-15T00:12:16;11.50;99.90
14079;DHT22;7115;50.150;8.568;2024-02-15T00:14:45;11.40;99.90
14079;DHT22;7115;50.150;8.568;2024-02-15T00:17:12;11.40;99.90
14079;DHT22;7115;50.150;8.568;2024-02-15T00:19:39;11.40;99.90
14079;DHT22;7115;50.150;8.568;2024-02-15T00:22:11;11.40;99.90
14079;DHT22;7115;50.150;8.568;2024-02-15T00:24:39;11.40;99.90
14079;DHT22;7115;50.150;8.568;2024-02-15T00:27:08;11.30;99.90
14079;DHT22;7115;50.150;8.568;2024-02-15T00:29:35;11.30;99.90
14079;DHT22;7115;50.150;8.568;2024-02-15T00:32:04;11.30;99.90
14079;DHT22;7115;50.150;8.568;2024-02-15T00:34:33;11.30;99.90
14079;DHT22;7115;50.150;8.568;2024-02-15T00:37:00;11.40;99.90
14079;DHT22;7115;50.150;8.568;2024-02-15T00:39:27;11.40;99.90
14079;DHT22;7115;50.150;8.568;2024-02-15T00:41:54;11.50;99.90
14079;DHT22;7115;50.150;8.568;2024-02-15T00:44:22;11.50;99.90
14079;DHT22;7115;50.150;8.568;2024-02-15T00:46:49;11.60;99.90
14079;DHT22;7115;50.150;8.568;2024-02-15T00:49:18;11.60;99.90
14079;DHT22;7115;50.150;8.568;2024-02-15T00:51:47;11.60;99.90
14079;DHT22;7115;50.150;8.568;2024-02-15T00:54:15;11.70;99.90
14079;DHT22;7115;50.150;8.568;2024-02-15T00:56:43;11.60;99.90
14079;DHT22;7115;50.150;8.568;2024-02-15T00:59:10;11.70;99.90
14079;DHT22;7115;50.150;8.568;2024-02-15T01:01:37;11.70;99.90
14079;DHT22;7115;50.150;8.568;2024-02-15T01:04:05;11.70;99.90
14079;DHT22;7115;50.150;8.568;2024-02-15T01:06:33;11.70;99.90
14079;DHT22;7115;50.150;8.568;2024-02-15T01:09:00;11.70;99.90
14079;DHT22;7115;50.150;8.568;2024-02-15T01:11:31;11.80;99.90
14079;DHT22;7115;50.150;8.568;2024-02-15T01:14:01;11.80;99.90
14079;DHT22;7115;50.150;8.568;2024-02-15T01:16:28;11.80;99.90
14079;DHT22;7115;50.150;8.568;2024-02-15T01:18:55;11.70;99.90
14079;DHT22;7115;50.150;8.568;2024-02-15T01:21:23;11.80;99.90
14079;DHT22;7115;50.150;8.568;2024-02-15T01:23:51;11.70;99.90
14079;DHT22;7115;50.150;8.568;2024-02-15T01:26:20;11.70;99.90
14079;DHT22;7115;50.150;8.568;2024-02-15T01:28:47;11.70;99.90
14079;DHT22;7115;50.150;8.568;2024-02-15T01:31:15;11.60;99.90
14079;DHT22;7115;50.150;8.568;2024-02-15T01:33:44;11.60;99.90
14079;DHT22;7115;50.150;8.568;2024-02-15T01:36:14;11.60;99.90
14079;DHT22;7115;50.150;8.568;2024-02-15T01:38:42;11.60;99.90
14079;DHT22;7115;50.150;8.568;2024-02-15T01:41:11;11.60;99.90
14079;DHT22;7115;50.150;8.568;2024-02-15T01:43:43;11.70;99.90
14079;DHT22;7115;50.150;8.568;2024-02-15T01:46:11;11.70;99.90
14079;DHT22;7115;50.150;8.568;2024-02-15T01:48:40;11.70;99.90
14079;DHT22;7115;50.150;8.568;2024-02-15T01:51:10;11.70;99.90
14079;DHT22;7115;50.150;8.568;2024-02-15T01:53:39;11.70;99.90
14079;DHT22;7115;50.150;8.568;2024-02-15T01:56:07;11.70;99.90
14079;DHT22;7115;50.150;8.568;2024-02-15T01:58:35;11.70;99.90
14079;DHT22;7115;50.150;8.568;2024-02-15T02:01:03;11.70;99.90
14079;DHT22;7115;50.150;8.568;2024-02-15T02:03:31;11.60;99.90
14079;DHT22;7115;50.150;8.568;2024-02-15T02:05:58;11.60;99.90
14079;DHT22;7115;50.150;8.568;2024-02-15T02:08:26;11.60;99.90
14079;DHT22;7115;50.150;8.568;2024-02-15T02:10:53;11.70;99.90
14079;DHT22;7115;50.150;8.568;2024-02-15T02:13:21;11.70;99.90
14079;DHT22;7115;50.150;8.568;2024-02-15T02:15:49;11.70;99.90
14079;DHT22;7115;50.150;8.568;2024-02-15T02:18:16;11.70;99.90
14079;DHT22;7115;50.150;8.568;2024-02-15T02:20:43;11.60;99.90
14079;DHT22;7115;50.150;8.568;2024-02-15T02:23:14;11.60;99.90
14079;DHT22;7115;50.150;8.568;2024-02-15T02:25:44;11.60;99.90
14079;DHT22;7115;50.150;8.568;2024-02-15T02:28:11;11.60;99.90
14079;DHT22;7115;50.150;8.568;2024-02-15T02:30:39;11.60;99.90
14079;DHT22;7115;50.150;8.568;2024-02-15T02:33:11;11.60;99.90
14079;DHT22;7115;50.150;8.568;2024-02-15T02:35:38;11.60;99.90
14079;DHT22;7115;50.150;8.568;2024-02-15T02:38:06;11.60;99.90
14079;DHT22;7115;50.150;8.568;2024-02-15T02:40:33;11.60;99.90
14079;DHT22;7115;50.150;8.568;2024-02-15T02:43:03;11.60;99.90
14079;DHT22;7115;50.150;8.568;2024-02-15T02:45:30;11.60;99.90
14079;DHT22;7115;50.150;8.568;2024-02-15T02:47:57;11.50;99.90
14079;DHT22;7115;50.150;8.568;2024-02-15T02:50:25;11.50;99.90
14079;DHT22;7115;50.150;8.568;2024-02-15T02:52:52;11.50;99.90
14079;DHT22;7115;50.150;8.568;2024-02-15T02:55:20;11.60;99.90
14079;DHT22;7115;50.150;8.568;2024-02-15T02:57:47;11.60;99.90
14079;DHT22;7115;50.150;8.568;2024-02-15T03:00:17;11.60;99.90
14079;DHT22;7115;50.150;8.568;2024-02-15T03:02:45;11.60;99.90
14079;DHT22;7115;50.150;8.568;2024-02-15T03:05:12;11.60;99.90
14079;DHT22;7115;50.150;8.568;2024-02-15T03:07:42;11.60;99.90
14079;DHT22;7115;50.150;8.568;2024-02-15T03:10:10;11.60;99.90
14079;DHT22;7115;50.150;8.568;2024-02-15T03:12:40;11.70;99.90
14079;DHT22;7115;50.150;8.568;2024-02-15T03:15:16;11.70;99.90
14079;DHT22;7115;50.150;8.568;2024-02-15T03:17:47;11.70;99.90
14079;DHT22;7115;50.150;8.568;2024-02-15T03:20:15;11.70;99.90
14079;DHT22;7115;50.150;8.568;2024-02-15T03:22:53;11.60;99.90
14079;DHT22;7115;50.150;8.568;2024-02-15T03:25:20;11.60;99.90
14079;DHT22;7115;50.150;8.568;2024-02-15T03:27:51;11.50;99.90
14079;DHT22;7115;50.150;8.568;2024-02-15T03:30:20;11.50;99.90
14079;DHT22;7115;50.150;8.568;2024-02-15T03:32:48;11.50;99.90
14079;DHT22;7115;50.150;8.568;2024-02-15T03:35:23;11.50;99.90
14079;DHT22;7115;50.150;8.568;2024-02-15T03:37:51;11.60;99.90
14079;DHT22;7115;50.150;8.568;2024-02-15T03:40:19;11.60;99.90
14079;DHT22;7115;50.150;8.568;2024-02-15T03:42:46;11.60;99.90
14079;DHT22;7115;50.150;8.568;2024-02-15T03:45:13;11.60;99.90
14079;DHT22;7115;50.150;8.568;2024-02-15T03:47:42;11.60;99.90
14079;DHT22;7115;50.150;8.568;2024-02-15T03:50:09;11.70;99.90
14079;DHT22;7115;50.150;8.568;2024-02-15T03:52:36;11.70;99.90
14079;DHT22;7115;50.150;8.568;2024-02-15T03:55:04;11.70;99.90
14079;DHT22;7115;50.150;8.568;2024-02-15T03:57:31;11.80;99.90
14079;DHT22;7115;50.150;8.568;2024-02-15T04:00:00;11.80;99.90
14079;DHT22;7115;50.150;8.568;2024-02-15T04:02:27;11.80;99.90
14079;DHT22;7115;50.150;8.568;2024-02-15T04:04:57;11.70;99.90
14079;DHT22;7115;50.150;8.568;2024-02-15T04:07:24;11.60;99.90
14079;DHT22;7115;50.150;8.568;2024-02-15T04:09:54;11.60;99.90
14079;DHT22;7115;50.150;8.568;2024-02-15T04:12:21;11.60;99.90
14079;DHT22;7115;50.150;8.568;2024-02-15T04:14:48;11.60;99.90
14079;DHT22;7115;50.150;8.568;2024-02-15T04:17:16;11.60;99.90
14079;DHT22;7115;50.150;8.568;2024-02-15T04:19:44;11.60;99.90
14079;DHT22;7115;50.150;8.568;2024-02-15T04:22:14;11.70;99.90
14079;DHT22;7115;50.150;8.568;2024-02-15T04:24:43;11.70;99.90
14079;DHT22;7115;50.150;8.568;2024-02-15T04:27:10;11.80;99.90
14079;DHT22;7115;50.150;8.568;2024-02-15T04:29:47;11.80;99.90
14079;DHT22;7115;50.150;8.568;2024-02-15T04:32:14;11.80;99.90
14079;DHT22;7115;50.150;8.568;2024-02-15T04:34:42;11.80;99.90
14079;DHT22;7115;50.150;8.568;2024-02-15T04:37:09;11.80;99.90
14079;DHT22;7115;50.150;8.568;2024-02-15T04:39:38;11.80;99.90
14079;DHT22;7115;50.150;8.568;2024-02-15T04:42:05;11.90;99.90
14079;DHT22;7115;50.150;8.568;2024-02-15T04:44:34;11.90;99.90
14079;DHT22;7115;50.150;8.568;2024-02-15T04:47:02;11.90;99.90
14079;DHT22;7115;50.150;8.568;2024-02-15T04:49:31;11.90;99.90
14079;DHT22;7115;50.150;8.568;2024-02-15T04:51:58;11.90;99.90
14079;DHT22;7115;50.150;8.568;2024-02-15T04:54:28;11.90;99.90
14079;DHT22;7115;50.150;8.568;2024-02-15T04:56:57;11.90;99.90
14079;DHT22;7115;50.150;8.568;2024-02-15T04:59:24;12.00;99.90
14079;DHT22;7115;50.150;8.568;2024-02-15T05:01:53;12.00;99.90
14079;DHT22;7115;50.150;8.568;2024-02-15T05:04:20;11.90;99.90
14079;DHT22;7115;50.150;8.568;2024-02-15T05:06:47;11.90;99.90
14079;DHT22;7115;50.150;8.568;2024-02-15T05:09:14;11.90;99.90
14079;DHT22;7115;50.150;8.568;2024-02-15T05:11:44;11.90;99.90
14079;DHT22;7115;50.150;8.568;2024-02-15T05:14:17;11.90;99.90
14079;DHT22;7115;50.150;8.568;2024-02-15T05:16:47;11.90;99.90
14079;DHT22;7115;50.150;8.568;2024-02-15T05:19:15;11.90;99.90
14079;DHT22;7115;50.150;8.568;2024-02-15T05:21:43;11.90;99.90
14079;DHT22;7115;50.150;8.568;2024-02-15T05:24:14;11.90;99.90
14079;DHT22;7115;50.150;8.568;2024-02-15T05:26:43;11.90;99.90
14079;DHT22;7115;50.150;8.568;2024-02-15T05:29:10;11.80;99.90
14079;DHT22;7115;50.150;8.568;2024-02-15T05:31:39;11.80;99.90
14079;DHT22;7115;50.150;8.568;2024-02-15T05:34:07;11.80;99.90
14079;DHT22;7115;50.150;8.568;2024-02-15T05:36:35;11.70;99.90
14079;DHT22;7115;50.150;8.568;2024-02-15T05:39:03;11.60;99.90
14079;DHT22;7115;50.150;8.568;2024-02-15T05:41:30;11.50;99.90
14079;DHT22;7115;50.150;8.568;2024-02-15T05:43:59;11.50;99.90
14079;DHT22;7115;50.150;8.568;2024-02-15T05:46:26;11.50;99.90
14079;DHT22;7115;50.150;8.568;2024-02-15T05:48:56;11.40;99.90
14079;DHT22;7115;50.150;8.568;2024-02-15T05:51:23;11.40;99.90
14079;DHT22;7115;50.150;8.568;2024-02-15T05:53:50;11.40;99.90
14079;DHT22;7115;50.150;8.568;2024-02-15T05:56:17;11.40;99.90
14079;DHT22;7115;50.150;8.568;2024-02-15T05:58:45;11.40;99.90
14079;DHT22;7115;50.150;8.568;2024-02-15T06:01:12;11.40;99.90
14079;DHT22;7115;50.150;8.568;2024-02-15T06:03:40;11.50;99.90
14079;DHT22;7115;50.150;8.568;2024-02-15T06:06:12;11.60;99.90
14079;DHT22;7115;50.150;8.568;2024-02-15T06:08:39;11.60;99.90
14079;DHT22;7115;50.150;8.568;2024-02-15T06:11:07;11.60;99.90
14079;DHT22;7115;50.150;8.568;2024-02-15T06:13:36;11.70;99.90
14079;DHT22;7115;50.150;8.568;2024-02-15T06:16:03;11.70;99.90
14079;DHT22;7115;50.150;8.568;2024-02-15T06:18:35;11.70;99.90
14079;DHT22;7115;50.150;8.568;2024-02-15T06:21:04;11.80;99.90
14079;DHT22;7115;50.150;8.568;2024-02-15T06:23:34;11.80;99.90
14079;DHT22;7115;50.150;8.568;2024-02-15T06:26:03;11.80;99.90
14079;DHT22;7115;50.150;8.568;2024-02-15T06:28:30;11.80;99.90
14079;DHT22;7115;50.150;8.568;2024-02-15T06:31:16;11.80;99.90
14079;DHT22;7115;50.150;8.568;2024-02-15T06:34:01;11.80;99.90
14079;DHT22;7115;50.150;8.568;2024-02-15T06:36:48;11.90;99.90
14079;DHT22;7115;50.150;8.568;2024-02-15T06:39:36;11.90;99.90
14079;DHT22;7115;50.150;8.568;2024-02-15T06:42:10;11.90;99.90
14079;DHT22;7115;50.150;8.568;2024-02-15T06:44:38;11.90;99.90
14079;DHT22;7115;50.150;8.568;2024-02-15T06:47:07;11.90;99.90
14079;DHT22;7115;50.150;8.568;2024-02-15T06:49:37;11.90;99.90
14079;DHT22;7115;50.150;8.568;2024-02-15T06:52:07;11.90;99.90
14079;DHT22;7115;50.150;8.568;2024-02-15T06:54:35;11.90;99.90
14079;DHT22;7115;50.150;8.568;2024-02-15T06:57:04;11.90;99.90
14079;DHT22;7115;50.150;8.568;2024-02-15T06:59:31;11.90;99.90
14079;DHT22;7115;50.150;8.568;2024-02-15T07:01:59;11.90;99.90
14079;DHT22;7115;50.150;8.568;2024-02-15T07:04:26;11.90;99.90
14079;DHT22;7115;50.150;8.568;2024-02-15T07:06:54;11.90;99.90
14079;DHT22;7115;50.150;8.568;2024-02-15T07:09:21;11.90;99.90
14079;DHT22;7115;50.150;8.568;2024-02-15T07:11:52;11.90;99.90
14079;DHT22;7115;50.150;8.568;2024-02-15T07:14:19;11.90;99.90
14079;DHT22;7115;50.150;8.568;2024-02-15T07:16:47;11.90;99.90
14079;DHT22;7115;50.150;8.568;2024-02-15T07:19:16;11.90;99.90
14079;DHT22;7115;50.150;8.568;2024-02-15T07:21:44;11.90;99.90
14079;DHT22;7115;50.150;8.568;2024-02-15T07:24:12;11.90;99.90
14079;DHT22;7115;50.150;8.568;2024-02-15T07:26:41;12.00;99.90
14079;DHT22;7115;50.150;8.568;2024-02-15T07:29:09;12.00;99.90
14079;DHT22;7115;50.150;8.568;2024-02-15T07:31:37;12.10;99.90
14079;DHT22;7115;50.150;8.568;2024-02-15T07:34:05;12.10;99.90
14079;DHT22;7115;50.150;8.568;2024-02-15T07:36:33;12.20;99.90
14079;DHT22;7115;50.150;8.568;2024-02-15T07:39:00;12.20;99.90
14079;DHT22;7115;50.150;8.568;2024-02-15T07:41:29;12.30;99.90
14079;DHT22;7115;50.150;8.568;2024-02-15T07:43:56;12.40;99.90
14079;DHT22;7115;50.150;8.568;2024-02-15T07:46:26;12.60;99.90
14079;DHT22;7115;50.150;8.568;2024-02-15T07:48:53;12.70;99.90
14079;DHT22;7115;50.150;8.568;2024-02-15T07:51:22;12.90;99.90
14079;DHT22;7115;50.150;8.568;2024-02-15T07:53:49;13.10;99.90
14079;DHT22;7115;50.150;8.568;2024-02-15T07:56:17;13.40;99.90
14079;DHT22;7115;50.150;8.568;2024-02-15T07:58:46;13.60;99.90
14079;DHT22;7115;50.150;8.568;2024-02-15T08:01:18;13.80;99.90
14079;DHT22;7115;50.150;8.568;2024-02-15T08:03:52;14.00;99.90
14079;DHT22;7115;50.150;8.568;2024-02-15T08:06:22;14.10;99.90
14079;DHT22;7115;50.150;8.568;2024-02-15T08:08:52;14.00;99.90
14079;DHT22;7115;50.150;8.568;2024-02-15T08:11:20;13.80;99.90
14079;DHT22;7115;50.150;8.568;2024-02-15T08:13:47;13.60;99.90
14079;DHT22;7115;50.150;8.568;2024-02-15T08:16:17;13.50;99.90
14079;DHT22;7115;50.150;8.568;2024-02-15T08:18:44;13.40;99.90
14079;DHT22;7115;50.150;8.568;2024-02-15T08:21:15;13.30;99.90
14079;DHT22;7115;50.150;8.568;2024-02-15T08:23:42;13.10;99.90
14079;DHT22;7115;50.150;8.568;2024-02-15T08:26:10;13.00;99.90
14079;DHT22;7115;50.150;8.568;2024-02-15T08:28:40;12.90;99.90
14079;DHT22;7115;50.150;8.568;2024-02-15T08:31:07;12.80;99.90
14079;DHT22;7115;50.150;8.568;2024-02-15T08:33:36;12.70;99.90
14079;DHT22;7115;50.150;8.568;2024-02-15T08:36:06;12.70;99.90
14079;DHT22;7115;50.150;8.568;2024-02-15T08:38:35;12.70;99.90
14079;DHT22;7115;50.150;8.568;2024-02-15T08:41:03;12.70;99.90
14079;DHT22;7115;50.150;8.568;2024-02-15T08:43:34;12.70;99.90
14079;DHT22;7115;50.150;8.568;2024-02-15T08:46:01;12.70;99.90
14079;DHT22;7115;50.150;8.568;2024-02-15T08:48:28;12.80;99.90
14079;DHT22;7115;50.150;8.568;2024-02-15T08:50:57;12.90;99.90
14079;DHT22;7115;50.150;8.568;2024-02-15T08:53:24;12.90;99.90
14079;DHT22;7115;50.150;8.568;2024-02-15T08:55:53;13.00;99.90
14079;DHT22;7115;50.150;8.568;2024-02-15T08:58:20;13.10;99.90
14079;DHT22;7115;50.150;8.568;2024-02-15T09:00:48;13.10;99.90
14079;DHT22;7115;50.150;8.568;2024-02-15T09:03:15;13.10;99.90
14079;DHT22;7115;50.150;8.568;2024-02-15T09:05:42;13.20;99.90
14079;DHT22;7115;50.150;8.568;2024-02-15T09:08:09;13.30;99.90
14079;DHT22;7115;50.150;8.568;2024-02-15T09:10:36;13.30;99.90
14079;DHT22;7115;50.150;8.568;2024-02-15T09:13:07;13.40;99.90
14079;DHT22;7115;50.150;8.568;2024-02-15T09:15:34;13.40;99.90
14079;DHT22;7115;50.150;8.568;2024-02-15T09:18:02;13.40;99.90
14079;DHT22;7115;50.150;8.568;2024-02-15T09:20:30;13.40;99.90
14079;DHT22;7115;50.150;8.568;2024-02-15T09:22:58;13.30;99.90
14079;DHT22;7115;50.150;8.568;2024-02-15T09:25:34;13.40;99.90
14079;DHT22;7115;50.150;8.568;2024-02-15T09:28:03;13.50;99.90
14079;DHT22;7115;50.150;8.568;2024-02-15T09:30:32;13.50;99.90
14079;DHT22;7115;50.150;8.568;2024-02-15T09:33:00;13.60;99.90
14079;DHT22;7115;50.150;8.568;2024-02-15T09:35:27;13.60;99.90
14079;DHT22;7115;50.150;8.568;2024-02-15T09:37:54;13.80;99.90
14079;DHT22;7115;50.150;8.568;2024-02-15T09:40:23;13.90;99.90
14079;DHT22;7115;50.150;8.568;2024-02-15T09:42:56;14.10;99.90
14079;DHT22;7115;50.150;8.568;2024-02-15T09:45:23;14.20;99.90
14079;DHT22;7115;50.150;8.568;2024-02-15T09:47:53;14.30;99.90
14079;DHT22;7115;50.150;8.568;2024-02-15T09:50:22;14.30;99.90
14079;DHT22;7115;50.150;8.568;2024-02-15T09:52:52;14.40;99.90
14079;DHT22;7115;50.150;8.568;2024-02-15T09:55:20;14.50;99.90
14079;DHT22;7115;50.150;8.568;2024-02-15T09:57:51;14.60;99.90
14079;DHT22;7115;50.150;8.568;2024-02-15T10:00:18;14.60;99.90
14079;DHT22;7115;50.150;8.568;2024-02-15T10:02:48;14.60;99.90
14079;DHT22;7115;50.150;8.568;2024-02-15T10:05:18;14.60;99.90
14079;DHT22;7115;50.150;8.568;2024-02-15T10:07:46;14.60;99.90
14079;DHT22;7115;50.150;8.568;2024-02-15T10:10:17;14.50;99.90
14079;DHT22;7115;50.150;8.568;2024-02-15T10:12:47;14.50;99.90
14079;DHT22;7115;50.150;8.568;2024-02-15T10:15:33;14.80;99.90
14079;DHT22;7115;50.150;8.568;2024-02-15T10:18:02;15.10;99.90
14079;DHT22;7115;50.150;8.568;2024-02-15T10:20:31;15.20;99.90
14079;DHT22;7115;50.150;8.568;2024-02-15T10:23:11;15.40;99.90
14079;DHT22;7115;50.150;8.568;2024-02-15T10:25:39;15.60;99.90
14079;DHT22;7115;50.150;8.568;2024-02-15T10:28:08;15.80;99.90
14079;DHT22;7115;50.150;8.568;2024-02-15T10:30:36;15.90;99.90
14079;DHT22;7115;50.150;8.568;2024-02-15T10:33:04;15.90;99.90
14079;DHT22;7115;50.150;8.568;2024-02-15T10:35:33;15.80;99.90
14079;DHT22;7115;50.150;8.568;2024-02-15T10:38:05;15.80;99.90
14079;DHT22;7115;50.150;8.568;2024-02-15T10:40:35;15.80;99.90
14079;DHT22;7115;50.150;8.568;2024-02-15T10:43:03;15.80;99.90
14079;DHT22;7115;50.150;8.568;2024-02-15T10:45:31;15.80;99.90
14079;DHT22;7115;50.150;8.568;2024-02-15T10:47:59;15.80;99.90
14079;DHT22;7115;50.150;8.568;2024-02-15T10:50:26;15.80;99.90
14079;DHT22;7115;50.150;8.568;2024-02-15T10:52:56;15.90;99.90
14079;DHT22;7115;50.150;8.568;2024-02-15T10:55:37;15.90;99.90
14079;DHT22;7115;50.150;8.568;2024-02-15T10:58:06;15.90;99.90
14079;DHT22;7115;50.150;8.568;2024-02-15T11:00:33;16.00;99.90
14079;DHT22;7115;50.150;8.568;2024-02-15T11:03:05;16.00;99.90
14079;DHT22;7115;50.150;8.568;2024-02-15T11:05:35;15.90;99.90
14079;DHT22;7115;50.150;8.568;2024-02-15T11:08:07;15.90;99.90
14079;DHT22;7115;50.150;8.568;2024-02-15T11:10:36;15.90;99.90
14079;DHT22;7115;50.150;8.568;2024-02-15T11:13:04;15.90;99.90
14079;DHT22;7115;50.150;8.568;2024-02-15T11:15:41;16.00;99.90
14079;DHT22;7115;50.150;8.568;2024-02-15T11:18:09;16.10;99.90
14079;DHT22;7115;50.150;8.568;2024-02-15T11:20:49;16.00;99.90
14079;DHT22;7115;50.150;8.568;2024-02-15T11:23:27;15.90;99.90
14079;DHT22;7115;50.150;8.568;2024-02-15T11:26:03;15.90;99.90
14079;DHT22;7115;50.150;8.568;2024-02-15T11:28:43;15.80;99.90
14079;DHT22;7115;50.150;8.568;2024-02-15T11:31:10;15.80;99.90
14079;DHT22;7115;50.150;8.568;2024-02-15T11:37:03;15.70;99.90
14079;DHT22;7115;50.150;8.568;2024-02-15T11:39:41;15.70;99.90
14079;DHT22;7115;50.150;8.568;2024-02-15T11:42:25;15.60;99.90
14079;DHT22;7115;50.150;8.568;2024-02-15T11:45:03;15.50;99.90
14079;DHT22;7115;50.150;8.568;2024-02-15T11:47:32;15.50;99.90
14079;DHT22;7115;50.150;8.568;2024-02-15T11:50:01;15.50;99.90
14079;DHT22;7115;50.150;8.568;2024-02-15T11:52:29;15.60;99.90
14079;DHT22;7115;50.150;8.568;2024-02-15T11:55:06;15.60;99.90
14079;DHT22;7115;50.150;8.568;2024-02-15T11:57:37;15.70;99.90
14079;DHT22;7115;50.150;8.568;2024-02-15T12:00:22;15.80;99.90
14079;DHT22;7115;50.150;8.568;2024-02-15T12:03:08;15.90;99.90
14079;DHT22;7115;50.150;8.568;2024-02-15T12:05:54;16.00;99.90
14079;DHT22;7115;50.150;8.568;2024-02-15T12:08:41;16.10;99.90
14079;DHT22;7115;50.150;8.568;2024-02-15T12:11:30;16.10;99.90
14079;DHT22;7115;50.150;8.568;2024-02-15T12:14:16;16.10;99.90
14079;DHT22;7115;50.150;8.568;2024-02-15T12:17:02;16.20;99.90
14079;DHT22;7115;50.150;8.568;2024-02-15T12:19:49;16.20;99.90
14079;DHT22;7115;50.150;8.568;2024-02-15T12:22:25;16.30;99.90
14079;DHT22;7115;50.150;8.568;2024-02-15T12:24:54;16.30;99.90
14079;DHT22;7115;50.150;8.568;2024-02-15T12:27:23;16.40;99.90
14079;DHT22;7115;50.150;8.568;2024-02-15T12:29:55;16.40;99.90
14079;DHT22;7115;50.150;8.568;2024-02-15T12:32:22;16.60;99.90
14079;DHT22;7115;50.150;8.568;2024-02-15T12:34:50;16.60;99.90
14079;DHT22;7115;50.150;8.568;2024-02-15T12:37:21;16.70;99.90
14079;DHT22;7115;50.150;8.568;2024-02-15T12:39:48;16.70;99.90
14079;DHT22;7115;50.150;8.568;2024-02-15T12:42:19;16.80;99.90
14079;DHT22;7115;50.150;8.568;2024-02-15T12:44:48;16.80;99.90
14079;DHT22;7115;50.150;8.568;2024-02-15T12:47:20;16.90;99.90
14079;DHT22;7115;50.150;8.568;2024-02-15T12:49:47;17.00;99.90
14079;DHT22;7115;50.150;8.568;2024-02-15T12:52:34;17.00;99.90
14079;DHT22;7115;50.150;8.568;2024-02-15T12:55:13;17.00;99.90
14079;DHT22;7115;50.150;8.568;2024-02-15T12:57:41;17.00;99.90
14079;DHT22;7115;50.150;8.568;2024-02-15T13:00:11;16.90;99.90
14079;DHT22;7115;50.150;8.568;2024-02-15T13:02:45;16.90;99.90
14079;DHT22;7115;50.150;8.568;2024-02-15T13:05:14;17.10;99.90
14079;DHT22;7115;50.150;8.568;2024-02-15T13:07:41;17.10;99.90
14079;DHT22;7115;50.150;8.568;2024-02-15T13:10:09;17.20;99.90
14079;DHT22;7115;50.150;8.568;2024-02-15T13:12:37;17.20;99.90
14079;DHT22;7115;50.150;8.568;2024-02-15T13:15:05;17.20;99.90
14079;DHT22;7115;50.150;8.568;2024-02-15T13:17:34;17.30;99.90
14079;DHT22;7115;50.150;8.568;2024-02-15T13:20:02;17.30;99.90
14079;DHT22;7115;50.150;8.568;2024-02-15T13:22:32;17.30;99.90
14079;DHT22;7115;50.150;8.568;2024-02-15T13:24:59;17.30;99.90
14079;DHT22;7115;50.150;8.568;2024-02-15T13:27:26;17.30;99.90
14079;DHT22;7115;50.150;8.568;2024-02-15T13:29:53;17.20;99.90
14079;DHT22;7115;50.150;8.568;2024-02-15T13:32:21;17.20;99.90
14079;DHT22;7115;50.150;8.568;2024-02-15T13:34:49;17.10;99.90
14079;DHT22;7115;50.150;8.568;2024-02-15T13:37:19;17.10;99.90
14079;DHT22;7115;50.150;8.568;2024-02-15T13:39:47;17.10;99.90
14079;DHT22;7115;50.150;8.568;2024-02-15T13:42:15;17.00;99.90
14079;DHT22;7115;50.150;8.568;2024-02-15T13:44:44;17.00;99.90
14079;DHT22;7115;50.150;8.568;2024-02-15T13:47:12;16.90;99.90
14079;DHT22;7115;50.150;8.568;2024-02-15T13:49:39;16.90;99.90
14079;DHT22;7115;50.150;8.568;2024-02-15T13:52:08;16.80;99.90
14079;DHT22;7115;50.150;8.568;2024-02-15T13:54:37;16.80;99.90
14079;DHT22;7115;50.150;8.568;2024-02-15T13:57:05;16.80;99.90
14079;DHT22;7115;50.150;8.568;2024-02-15T13:59:33;16.70;99.90
14079;DHT22;7115;50.150;8.568;2024-02-15T14:02:01;16.70;99.90
14079;DHT22;7115;50.150;8.568;2024-02-15T14:04:30;16.60;99.90
14079;DHT22;7115;50.150;8.568;2024-02-15T14:06:58;16.60;99.90
14079;DHT22;7115;50.150;8.568;2024-02-15T14:09:28;16.60;99.90
14079;DHT22;7115;50.150;8.568;2024-02-15T14:11:57;16.60;99.90
14079;DHT22;7115;50.150;8.568;2024-02-15T14:14:25;16.50;99.90
14079;DHT22;7115;50.150;8.568;2024-02-15T14:16:52;16.50;99.90
14079;DHT22;7115;50.150;8.568;2024-02-15T14:19:19;16.50;99.90
14079;DHT22;7115;50.150;8.568;2024-02-15T14:21:48;16.60;99.90
14079;DHT22;7115;50.150;8.568;2024-02-15T14:24:15;16.60;99.90
14079;DHT22;7115;50.150;8.568;2024-02-15T14:26:44;16.50;99.90
14079;DHT22;7115;50.150;8.568;2024-02-15T14:29:11;16.40;99.90
14079;DHT22;7115;50.150;8.568;2024-02-15T14:31:41;16.50;99.90
14079;DHT22;7115;50.150;8.568;2024-02-15T14:34:26;16.40;99.90
14079;DHT22;7115;50.150;8.568;2024-02-15T14:36:53;16.40;99.90
14079;DHT22;7115;50.150;8.568;2024-02-15T14:39:21;16.40;99.90
14079;DHT22;7115;50.150;8.568;2024-02-15T14:41:50;16.50;99.90
14079;DHT22;7115;50.150;8.568;2024-02-15T14:44:18;16.40;99.90
14079;DHT22;7115;50.150;8.568;2024-02-15T14:46:45;16.40;99.90
14079;DHT22;7115;50.150;8.568;2024-02-15T14:49:13;16.40;99.90
14079;DHT22;7115;50.150;8.568;2024-02-15T14:51:40;16.40;99.90
14079;DHT22;7115;50.150;8.568;2024-02-15T14:54:08;16.40;99.90
14079;DHT22;7115;50.150;8.568;2024-02-15T14:56:35;16.30;99.90
14079;DHT22;7115;50.150;8.568;2024-02-15T14:59:06;16.30;99.90
14079;DHT22;7115;50.150;8.568;2024-02-15T15:01:33;16.30;99.90
14079;DHT22;7115;50.150;8.568;2024-02-15T15:04:02;16.40;99.90
14079;DHT22;7115;50.150;8.568;2024-02-15T15:06:32;16.30;99.90
14079;DHT22;7115;50.150;8.568;2024-02-15T15:09:18;16.30;99.90
14079;DHT22;7115;50.150;8.568;2024-02-15T15:12:04;16.30;99.90
14079;DHT22;7115;50.150;8.568;2024-02-15T15:14:51;16.30;99.90
14079;DHT22;7115;50.150;8.568;2024-02-15T15:17:18;16.20;99.90
14079;DHT22;7115;50.150;8.568;2024-02-15T15:19:47;16.20;99.90
14079;DHT22;7115;50.150;8.568;2024-02-15T15:22:15;16.20;99.90
14079;DHT22;7115;50.150;8.568;2024-02-15T15:24:42;16.20;99.90
14079;DHT22;7115;50.150;8.568;2024-02-15T15:27:10;16.20;99.90
14079;DHT22;7115;50.150;8.568;2024-02-15T15:29:37;16.10;99.90
14079;DHT22;7115;50.150;8.568;2024-02-15T15:32:05;16.10;99.90
14079;DHT22;7115;50.150;8.568;2024-02-15T15:34:34;16.10;99.90
14079;DHT22;7115;50.150;8.568;2024-02-15T15:37:01;16.10;99.90
14079;DHT22;7115;50.150;8.568;2024-02-15T15:39:28;16.10;99.90
14079;DHT22;7115;50.150;8.568;2024-02-15T15:42:00;16.10;99.90
14079;DHT22;7115;50.150;8.568;2024-02-15T15:44:27;16.00;99.90
14079;DHT22;7115;50.150;8.568;2024-02-15T15:46:54;16.00;99.90
14079;DHT22;7115;50.150;8.568;2024-02-15T15:49:23;15.90;99.90
14079;DHT22;7115;50.150;8.568;2024-02-15T15:51:51;15.90;99.90
14079;DHT22;7115;50.150;8.568;2024-02-15T15:54:19;15.90;99.90
14079;DHT22;7115;50.150;8.568;2024-02-15T15:56:46;15.80;99.90
14079;DHT22;7115;50.150;8.568;2024-02-15T15:59:14;15.80;99.90
14079;DHT22;7115;50.150;8.568;2024-02-15T16:01:47;15.80;99.90
14079;DHT22;7115;50.150;8.568;2024-02-15T16:04:14;15.80;99.90